Time;durP1;ratioP1;P1;durP2;ratioP2;P2;SDS_P1;SDS_P2;PMS_P1;PMS_P2;Temp;Humidity;BMP_temperature;BMP_pressure;BME280_temperature;BME280_humidity;BME280_pressure;Samples;Min_cycle;Max_cycle;Signal;HPM_P1;HPM_P2
2021/05/29 00:01:31;;;;;;;4.63;4.18;;;;;;;13.17;34.95;101843.31;4912054;28;98923;-70
2021/05/29 00:03:59;;;;;;;3.80;3.38;;;;;;;13.08;35.06;101846.59;4918755;28;97219;-70
2021/05/29 00:06:26;;;;;;;4.35;3.97;;;;;;;13.04;35.12;101858.06;4912299;28;96901;-71
2021/05/29 00:08:53;;;;;;;3.63;3.38;;;;;;;13.03;34.97;101857.19;4900740;28;99618;-70
2021/05/29 00:11:21;;;;;;;4.00;3.70;;;;;;;13.06;35.02;101851.00;4890300;28;99664;-71
2021/05/29 00:13:48;;;;;;;3.45;3.22;;;;;;;13.05;35.02;101855.47;4898135;28;97843;-71
2021/05/29 00:16:16;;;;;;;4.60;4.22;;;;;;;13.01;35.20;101858.91;4911427;28;97962;-71
2021/05/29 00:18:44;;;;;;;3.58;3.30;;;;;;;13.01;35.17;101858.00;4901868;28;99854;-71
2021/05/29 00:21:11;;;;;;;3.40;3.10;;;;;;;13.02;35.08;101859.81;4911838;28;97415;-70
2021/05/29 00:23:38;;;;;;;4.57;3.50;;;;;;;13.03;34.87;101856.28;4915822;28;97301;-71
2021/05/29 00:26:06;;;;;;;4.38;3.45;;;;;;;12.99;35.07;101859.69;4907987;28;97473;-70
2021/05/29 00:28:35;;;;;;;4.03;3.67;;;;;;;13.03;35.04;101862.53;4905608;28;99764;-70
2021/05/29 00:31:03;;;;;;;4.45;3.53;;;;;;;13.06;34.91;101861.69;4898967;28;99081;-69
2021/05/29 00:33:31;;;;;;;3.78;3.47;;;;;;;13.07;34.91;101859.09;4899701;28;97989;-70
2021/05/29 00:35:58;;;;;;;6.82;4.50;;;;;;;13.12;35.06;101856.53;4911913;28;97206;-69
2021/05/29 00:38:26;;;;;;;4.68;3.92;;;;;;;13.14;34.92;101854.81;4916173;28;97845;-70
2021/05/29 00:40:53;;;;;;;3.88;3.45;;;;;;;13.15;34.84;101859.25;4922794;28;99300;-69
2021/05/29 00:43:21;;;;;;;3.65;3.33;;;;;;;13.05;34.92;101866.16;4918070;28;96791;-69
2021/05/29 00:45:48;;;;;;;4.32;3.30;;;;;;;13.01;35.06;101863.34;4910471;28;97785;-69
2021/05/29 00:48:16;;;;;;;4.10;3.63;;;;;;;12.83;35.10;101863.69;4908068;28;98560;-69
2021/05/29 00:50:50;;;;;;;7.72;4.03;;;;;;;12.76;35.22;101864.38;4914871;28;97586;-69
2021/05/29 00:53:18;;;;;;;4.65;4.18;;;;;;;12.70;35.38;101863.28;4917133;28;97900;-70
2021/05/29 00:55:47;;;;;;;4.72;3.63;;;;;;;12.70;35.44;101874.88;4917124;28;97498;-69
2021/05/29 00:58:14;;;;;;;3.90;3.58;;;;;;;12.70;35.40;101882.88;4905355;28;98478;-69
2021/05/29 01:00:42;;;;;;;4.05;3.63;;;;;;;12.70;35.17;101881.97;4893069;28;100439;-69
2021/05/29 01:03:09;;;;;;;4.88;3.80;;;;;;;12.68;35.46;101886.34;4916262;28;97372;-69
2021/05/29 01:05:38;;;;;;;4.10;3.80;;;;;;;12.62;35.49;101892.41;4915689;28;97514;-70
2021/05/29 01:08:06;;;;;;;5.30;4.20;;;;;;;12.49;35.50;101898.22;4899063;28;101027;-69
2021/05/29 01:10:34;;;;;;;4.28;3.90;;;;;;;12.48;35.47;101900.84;4906749;28;97874;-69
2021/05/29 01:13:06;;;;;;;5.63;3.95;;;;;;;12.46;35.72;101905.25;4912236;28;96896;-69
2021/05/29 01:15:36;;;;;;;7.10;4.07;;;;;;;12.47;35.51;101894.63;4913048;28;97518;-69
2021/05/29 01:18:04;;;;;;;5.97;4.18;;;;;;;12.50;35.57;101899.16;4905160;28;97940;-70
2021/05/29 01:20:32;;;;;;;5.95;4.60;;;;;;;12.56;35.63;101899.34;4907312;28;100728;-69
2021/05/29 01:23:01;;;;;;;4.18;3.88;;;;;;;12.62;35.49;101902.22;4908278;28;97166;-69
2021/05/29 01:25:32;;;;;;;4.38;4.00;;;;;;;12.67;35.52;101897.91;4908066;28;96989;-70
2021/05/29 01:28:03;;;;;;;6.43;4.22;;;;;;;12.69;35.34;101891.72;4908607;28;98169;-70
2021/05/29 01:30:32;;;;;;;4.70;4.30;;;;;;;12.73;35.35;101895.44;4906325;28;97732;-69
2021/05/29 01:33:01;;;;;;;4.68;4.20;;;;;;;12.75;35.37;101893.69;4912551;28;98737;-70
2021/05/29 01:35:28;;;;;;;5.35;4.85;;;;;;;12.78;35.19;101897.34;4914581;28;97625;-70
2021/05/29 01:37:56;;;;;;;8.18;5.60;;;;;;;12.79;35.80;101896.50;4911661;28;98748;-69
2021/05/29 01:40:24;;;;;;;5.32;4.93;;;;;;;12.87;35.63;101891.41;4907741;28;99812;-69
2021/05/29 01:42:52;;;;;;;5.32;4.82;;;;;;;12.92;35.36;101895.09;4911530;28;97552;-69
2021/05/29 01:45:19;;;;;;;7.38;6.15;;;;;;;12.94;35.83;101904.97;4911262;28;98193;-70
2021/05/29 01:47:47;;;;;;;4.78;4.47;;;;;;;12.99;35.59;101900.72;4911777;28;101116;-70
2021/05/29 01:50:18;;;;;;;5.63;4.90;;;;;;;13.02;35.61;101897.22;4920937;28;99497;-69
2021/05/29 01:52:51;;;;;;;6.87;6.17;;;;;;;13.01;35.60;101896.31;4892238;28;97194;-70
2021/05/29 01:55:21;;;;;;;5.85;5.25;;;;;;;13.05;35.63;101903.56;4917972;28;97474;-69
2021/05/29 01:57:50;;;;;;;5.57;5.07;;;;;;;13.09;35.38;101896.53;4909168;28;97913;-70
2021/05/29 02:00:20;;;;;;;6.00;5.15;;;;;;;13.08;35.46;101900.06;4914718;28;98994;-69
2021/05/29 02:02:48;;;;;;;6.55;5.57;;;;;;;13.06;35.47;101899.09;4902129;28;96814;-70
2021/05/29 02:05:17;;;;;;;5.47;4.97;;;;;;;13.09;35.35;101893.88;4906036;28;97927;-69
2021/05/29 02:07:45;;;;;;;5.85;5.35;;;;;;;13.06;35.39;101901.78;4901756;28;99242;-70
2021/05/29 02:10:14;;;;;;;6.80;5.20;;;;;;;13.04;35.47;101895.47;4915687;28;99229;-69
2021/05/29 02:12:43;;;;;;;7.00;5.68;;;;;;;12.98;35.47;101895.28;4909617;28;97147;-70
2021/05/29 02:15:14;;;;;;;5.65;5.03;;;;;;;12.98;35.48;101889.94;4902760;28;97743;-70
2021/05/29 02:17:42;;;;;;;6.28;5.53;;;;;;;12.96;35.46;101891.66;4884607;28;100428;-70
2021/05/29 02:20:12;;;;;;;7.63;5.43;;;;;;;12.96;35.42;101881.88;4907902;28;99254;-70
2021/05/29 02:22:39;;;;;;;6.40;5.07;;;;;;;12.96;35.34;101880.97;4916505;28;96963;-71
2021/05/29 02:25:09;;;;;;;6.38;5.68;;;;;;;12.95;35.56;101882.72;4903563;28;97250;-71
2021/05/29 02:27:37;;;;;;;6.03;5.43;;;;;;;12.96;35.35;101886.31;4913659;28;98710;-71
2021/05/29 02:30:06;;;;;;;6.72;5.13;;;;;;;12.95;35.49;101887.16;4905753;28;98115;-71
2021/05/29 02:32:34;;;;;;;8.38;5.38;;;;;;;12.95;35.33;101887.16;4903273;28;97818;-71
2021/05/29 02:35:03;;;;;;;6.00;5.40;;;;;;;12.94;35.51;101882.69;4904826;28;97126;-71
2021/05/29 02:37:30;;;;;;;7.75;6.20;;;;;;;12.92;35.51;101885.31;4927504;28;98706;-71
2021/05/29 02:39:58;;;;;;;9.47;7.67;;;;;;;12.94;35.74;101888.03;4905245;28;97841;-71
2021/05/29 02:42:26;;;;;;;9.82;5.93;;;;;;;12.95;35.70;101889.84;4932492;28;98211;-71
2021/05/29 02:44:54;;;;;;;8.32;6.28;;;;;;;12.91;35.69;101887.97;4909183;28;97843;-70
2021/05/29 02:47:22;;;;;;;7.57;6.03;;;;;;;12.86;35.63;101882.47;4907119;28;99299;-70
2021/05/29 02:49:53;;;;;;;6.10;5.57;;;;;;;12.82;35.69;101883.22;4916989;28;97633;-72
2021/05/29 02:52:25;;;;;;;8.20;5.90;;;;;;;12.83;35.63;101885.06;4912471;28;97335;-71
2021/05/29 02:55:03;;;;;;;9.80;6.82;;;;;;;12.83;35.49;101887.72;4914854;28;96899;-70
2021/05/29 02:57:30;;;;;;;9.65;6.72;;;;;;;12.81;35.59;101885.88;4898179;28;96949;-70
2021/05/29 02:59:58;;;;;;;10.02;6.78;;;;;;;12.78;35.71;101883.13;4910643;28;99290;-71
2021/05/29 03:02:25;;;;;;;11.13;8.68;;;;;;;12.79;35.93;101879.56;4892976;28;97666;-70
2021/05/29 03:05:01;;;;;;;11.57;8.10;;;;;;;12.80;36.08;101884.06;4909436;28;97381;-70
2021/05/29 03:07:28;;;;;;;7.03;6.38;;;;;;;12.86;35.75;101885.13;4912530;28;99290;-71
2021/05/29 03:09:56;;;;;;;9.13;7.40;;;;;;;12.86;35.73;101886.91;4901601;28;98465;-71
2021/05/29 03:12:24;;;;;;;10.05;7.38;;;;;;;12.86;35.71;101890.47;4910526;28;98226;-71
2021/05/29 03:14:52;;;;;;;8.27;7.28;;;;;;;12.81;35.59;101884.09;4902745;28;97277;-70
2021/05/29 03:17:19;;;;;;;7.97;7.15;;;;;;;12.79;35.80;101898.25;4899428;28;98472;-71
2021/05/29 03:19:47;;;;;;;11.07;7.78;;;;;;;12.79;35.64;101898.25;4907056;28;97664;-71
2021/05/29 03:22:15;;;;;;;10.75;7.15;;;;;;;12.79;35.69;101901.84;4908286;28;96988;-71
2021/05/29 03:24:43;;;;;;;10.90;7.35;;;;;;;12.76;35.67;101898.19;4917438;28;97753;-71
2021/05/29 03:27:16;;;;;;;10.85;7.65;;;;;;;12.74;35.75;101908.81;4905546;28;99876;-71
2021/05/29 03:29:43;;;;;;;8.10;6.78;;;;;;;12.73;35.61;101912.34;4902219;28;100486;-71
2021/05/29 03:32:11;;;;;;;8.13;7.20;;;;;;;12.74;35.55;101908.81;4903393;28;97256;-71
2021/05/29 03:34:41;;;;;;;10.35;8.00;;;;;;;12.72;35.71;101917.63;4883817;28;98001;-71
2021/05/29 03:37:09;;;;;;;10.65;7.45;;;;;;;12.71;35.48;101921.19;4914045;28;99399;-70
2021/05/29 03:39:37;;;;;;;9.25;7.57;;;;;;;12.72;35.54;101918.56;4899346;28;99126;-71
2021/05/29 03:42:06;;;;;;;11.52;9.45;;;;;;;12.74;35.73;101926.63;4914192;28;97633;-71
2021/05/29 03:44:33;;;;;;;11.25;8.10;;;;;;;12.76;35.72;101920.47;4912826;28;97498;-71
2021/05/29 03:47:01;;;;;;;15.68;8.23;;;;;;;12.76;35.62;101932.91;4910166;28;97778;-71
2021/05/29 03:49:31;;;;;;;10.32;7.95;;;;;;;12.75;35.57;101925.75;4915770;28;98163;-71
2021/05/29 03:51:58;;;;;;;8.90;7.78;;;;;;;12.72;35.67;101922.97;4911043;28;97870;-70
2021/05/29 03:54:26;;;;;;;69.75;31.75;;;;;;;12.72;35.77;101922.97;4914512;28;97467;-71
2021/05/29 03:56:54;;;;;;;19.45;11.13;;;;;;;12.70;35.50;101927.38;4917759;28;97884;-71
2021/05/29 03:59:21;;;;;;;11.32;8.68;;;;;;;12.67;35.71;101933.53;4915699;28;98205;-71
2021/05/29 04:01:49;;;;;;;13.48;8.55;;;;;;;12.68;35.51;101938.00;4896778;28;96983;-71
2021/05/29 04:04:18;;;;;;;12.82;8.38;;;;;;;12.69;35.32;101938.94;4900605;28;97910;-71
2021/05/29 04:06:45;;;;;;;15.50;8.95;;;;;;;12.70;35.42;101944.31;4907505;28;98010;-70
2021/05/29 04:09:13;;;;;;;12.15;8.00;;;;;;;12.68;35.55;101945.09;4908672;28;99356;-70
2021/05/29 04:11:40;;;;;;;9.95;7.93;;;;;;;12.67;35.56;101945.97;4915793;28;97568;-70
2021/05/29 04:14:09;;;;;;;10.55;9.23;;;;;;;12.70;35.34;101946.06;4903215;28;97144;-70
2021/05/29 04:16:36;;;;;;;11.75;7.88;;;;;;;12.70;35.48;101938.06;4904151;28;99641;-70
2021/05/29 04:19:04;;;;;;;11.77;8.48;;;;;;;12.70;35.42;101946.97;4902121;28;98039;-71
2021/05/29 04:21:31;;;;;;;10.30;8.85;;;;;;;12.71;35.33;101947.91;4903453;28;97305;-71
2021/05/29 04:23:58;;;;;;;8.70;7.80;;;;;;;12.71;35.42;101948.78;4912948;28;98007;-70
2021/05/29 04:26:26;;;;;;;11.57;8.35;;;;;;;12.69;35.48;101952.28;4901791;28;99365;-71
2021/05/29 04:28:54;;;;;;;71.80;34.28;;;;;;;12.68;35.34;101938.00;4899525;28;99525;-71
2021/05/29 04:31:22;;;;;;;15.98;11.20;;;;;;;12.72;35.29;101942.59;4912876;28;97574;-71
2021/05/29 04:33:49;;;;;;;14.43;9.63;;;;;;;12.71;35.24;101939.88;4912700;28;97430;-70
2021/05/29 04:36:16;;;;;;;12.40;8.70;;;;;;;12.72;35.33;101939.94;4907544;28;99630;-71
2021/05/29 04:38:44;;;;;;;13.40;9.52;;;;;;;12.71;35.39;101947.91;4913475;28;98264;-71
2021/05/29 04:41:11;;;;;;;12.93;9.27;;;;;;;12.68;35.57;101942.44;4911869;28;97278;-70
2021/05/29 04:43:39;;;;;;;13.68;9.13;;;;;;;12.64;35.43;101948.53;4914079;28;97523;-70
2021/05/29 04:46:08;;;;;;;12.98;8.77;;;;;;;12.63;35.58;101938.72;4911374;28;97644;-70
2021/05/29 04:48:36;;;;;;;10.05;8.85;;;;;;;12.64;35.42;101943.19;4901174;28;98069;-70
2021/05/29 04:51:14;;;;;;;9.75;7.78;;;;;;;12.66;35.22;101953.09;4890144;28;97888;-70
2021/05/29 04:53:42;;;;;;;99.00;50.28;;;;;;;12.67;35.33;101948.66;4909759;28;97008;-70
2021/05/29 04:56:11;;;;;;;21.15;15.60;;;;;;;12.68;35.44;101947.78;4911876;28;98684;-70
2021/05/29 04:58:38;;;;;;;13.55;9.85;;;;;;;12.72;35.35;101955.03;4911016;28;99349;-70
2021/05/29 05:01:07;;;;;;;12.60;9.18;;;;;;;12.75;35.20;101952.44;4912628;28;97769;-70
2021/05/29 05:03:34;;;;;;;10.50;9.27;;;;;;;12.79;35.24;101954.34;4915233;28;97029;-71
2021/05/29 05:06:03;;;;;;;16.23;10.07;;;;;;;12.78;35.33;101955.22;4899470;28;100938;-71
2021/05/29 05:08:30;;;;;;;11.38;8.60;;;;;;;12.78;35.25;101955.22;4907397;28;99115;-71
2021/05/29 05:10:58;;;;;;;12.98;9.40;;;;;;;12.79;35.18;101947.25;4903235;28;97999;-71
2021/05/29 05:13:26;;;;;;;15.27;10.73;;;;;;;12.81;35.12;101949.97;4903604;28;97994;-71
2021/05/29 05:15:53;;;;;;;23.70;18.40;;;;;;;12.79;35.17;101957.03;4905695;28;100062;-71
2021/05/29 05:18:22;;;;;;;18.95;12.30;;;;;;;12.78;35.04;101958.78;4904522;28;98825;-72
2021/05/29 05:20:49;;;;;;;17.38;11.40;;;;;;;12.80;35.20;101959.75;4901140;28;97448;-71
2021/05/29 05:23:21;;;;;;;13.10;10.00;;;;;;;12.82;35.18;101962.50;4905042;28;98146;-71
2021/05/29 05:25:49;;;;;;;15.70;9.98;;;;;;;12.85;35.14;101957.22;4887016;28;99097;-71
2021/05/29 05:28:17;;;;;;;15.52;10.35;;;;;;;12.89;35.10;101962.69;4908705;28;98750;-71
2021/05/29 05:30:44;;;;;;;18.08;10.23;;;;;;;;;;4904958;28;97021;-71
2021/05/29 05:33:12;;;;;;;14.85;10.40;;;;;;;12.99;34.93;101966.56;4900420;28;97479;-71
2021/05/29 05:35:40;;;;;;;16.98;10.65;;;;;;;12.94;34.98;101974.44;4899355;28;100259;-71
2021/05/29 05:38:07;;;;;;;27.55;16.98;;;;;;;;;;4911258;28;100054;-71
2021/05/29 05:40:36;;;;;;;66.65;36.03;;;;;;;12.92;34.96;101967.25;4907320;28;97320;-71
2021/05/29 05:43:03;;;;;;;19.73;13.75;;;;;;;12.97;34.99;101978.97;4905192;28;97664;-71
2021/05/29 05:45:30;;;;;;;13.75;9.55;;;;;;;12.98;34.97;101972.78;4899537;28;100464;-71
2021/05/29 05:47:58;;;;;;;15.90;10.52;;;;;;;13.01;34.88;101976.47;4911035;28;97785;-71
2021/05/29 05:50:25;;;;;;;14.75;9.73;;;;;;;13.03;34.92;101977.44;4899998;28;97535;-71
2021/05/29 05:52:53;;;;;;;15.70;9.60;;;;;;;13.06;34.84;101977.50;4901643;28;96885;-71
2021/05/29 05:55:23;;;;;;;11.43;9.00;;;;;;;13.07;34.72;101981.09;4902165;28;100316;-71
2021/05/29 05:57:53;;;;;;;13.43;9.52;;;;;;;13.10;34.61;101983.84;4888177;28;100456;-71
2021/05/29 06:00:20;;;;;;;39.28;23.02;;;;;;;13.12;34.72;101979.47;4905166;28;96968;-71
2021/05/29 06:02:49;;;;;;;17.90;12.27;;;;;;;13.14;34.65;101993.78;4901892;28;98085;-71
2021/05/29 06:05:17;;;;;;;17.77;11.23;;;;;;;13.13;34.67;101983.94;4912613;28;98038;-71
2021/05/29 06:07:45;;;;;;;14.02;10.35;;;;;;;13.17;34.53;101984.09;4915076;28;98058;-70
2021/05/29 06:10:12;;;;;;;14.98;9.48;;;;;;;13.18;34.66;101982.31;4891723;28;97937;-71
2021/05/29 06:12:44;;;;;;;14.40;9.32;;;;;;;13.20;34.58;101985.03;4910547;28;97572;-71
2021/05/29 06:18:07;;;;;;;15.23;10.13;;;;;;;13.24;34.44;101990.50;4905134;28;98981;-71
2021/05/29 06:20:37;;;;;;;13.85;10.10;;;;;;;13.28;34.42;101995.09;4911747;28;97833;-72
2021/05/29 06:23:06;;;;;;;17.47;13.67;;;;;;;13.29;34.82;101988.91;4912906;28;96979;-71
2021/05/29 06:25:33;;;;;;;28.65;18.83;;;;;;;13.38;34.65;101989.16;4896438;28;100821;-72
2021/05/29 06:28:00;;;;;;;17.90;12.50;;;;;;;13.41;34.63;101989.25;4882199;28;99763;-71
2021/05/29 06:30:29;;;;;;;16.05;12.73;;;;;;;13.39;34.96;101990.97;4901246;28;97571;-71
2021/05/29 06:32:56;;;;;;;15.70;12.13;;;;;;;13.43;34.96;101987.53;4903680;28;97842;-71
2021/05/29 06:35:24;;;;;;;16.40;12.40;;;;;;;13.49;34.96;101989.47;4889883;28;99820;-72
2021/05/29 06:37:51;;;;;;;14.38;9.80;;;;;;;13.61;34.62;101990.72;4895886;28;99417;-72
2021/05/29 06:40:19;;;;;;;11.73;9.73;;;;;;;13.66;34.52;101998.88;4888177;28;97868;-72
2021/05/29 06:42:46;;;;;;;13.30;9.88;;;;;;;13.67;34.47;101998.91;4906277;28;97892;-70
2021/05/29 06:45:14;;;;;;;13.90;9.75;;;;;;;13.68;34.39;101994.44;4902764;28;97551;-73
2021/05/29 06:47:42;;;;;;;14.18;9.52;;;;;;;13.66;34.40;101999.75;4910005;28;98685;-72
2021/05/29 06:50:10;;;;;;;13.23;9.90;;;;;;;13.60;34.42;101990.66;4905013;28;98088;-70
2021/05/29 06:52:41;;;;;;;31.98;19.92;;;;;;;13.58;34.55;101995.97;4904208;28;97480;-70
2021/05/29 07:00:38;;;;;;;16.40;10.50;;;;;;;13.63;34.51;101998.78;4897985;28;97604;-69
2021/05/29 07:03:06;;;;;;;18.60;11.68;;;;;;;13.53;34.51;101994.91;4903351;28;96949;-69
2021/05/29 07:05:35;;;;;;;12.73;10.13;;;;;;;13.54;34.46;101995.84;4924798;28;100747;-70
2021/05/29 07:08:02;;;;;;;12.57;8.93;;;;;;;13.52;34.68;102003.81;4901285;28;99742;-69
2021/05/29 07:10:30;;;;;;;10.85;8.45;;;;;;;13.58;34.46;102004.00;4909842;28;97177;-70
2021/05/29 07:12:57;;;;;;;9.82;8.52;;;;;;;13.65;34.44;102010.41;4909506;28;97156;-70
2021/05/29 07:15:27;;;;;;;12.43;9.25;;;;;;;13.71;34.32;102008.84;4897600;28;100839;-70
2021/05/29 07:17:56;;;;;;;12.57;8.50;;;;;;;13.78;34.27;102017.94;4898662;28;99377;-71
2021/05/29 07:20:24;;;;;;;15.63;10.93;;;;;;;13.77;34.05;102014.34;4893813;28;97467;-70
2021/05/29 07:22:52;;;;;;;13.52;9.27;;;;;;;13.78;34.17;102021.53;4918399;28;97997;-71
2021/05/29 07:25:20;;;;;;;12.25;8.63;;;;;;;13.77;34.09;102022.38;4906008;28;99955;-70
2021/05/29 07:27:47;;;;;;;12.00;9.32;;;;;;;13.78;34.25;102016.16;4910670;28;98678;-70
2021/05/29 07:30:16;;;;;;;14.77;9.68;;;;;;;13.80;34.12;102027.84;4914045;28;98168;-70
2021/05/29 07:32:43;;;;;;;12.60;10.13;;;;;;;13.86;34.02;102025.31;4913888;28;97426;-71
2021/05/29 07:35:12;;;;;;;11.27;6.78;;;;;;;13.91;33.77;102025.47;4911977;28;97993;-71
2021/05/29 07:37:40;;;;;;;11.75;7.10;;;;;;;13.87;33.81;102023.56;4912223;28;97982;-70
2021/05/29 07:40:08;;;;;;;8.80;6.43;;;;;;;13.87;33.75;102023.56;4912809;28;98031;-71
2021/05/29 07:42:36;;;;;;;8.80;6.82;;;;;;;13.86;33.81;102028.00;4919856;28;97653;-70
2021/05/29 07:45:05;;;;;;;7.70;6.88;;;;;;;13.87;33.76;102019.13;4892944;28;99569;-71
2021/05/29 07:47:33;;;;;;;7.43;6.72;;;;;;;13.91;33.70;102026.38;4902217;28;100369;-71
2021/05/29 07:50:00;;;;;;;9.30;6.40;;;;;;;13.93;33.70;102035.31;4916257;28;97612;-71
2021/05/29 07:52:29;;;;;;;12.38;7.40;;;;;;;13.93;33.68;102029.97;4894274;28;97648;-70
2021/05/29 07:54:57;;;;;;;8.50;6.40;;;;;;;13.88;33.69;102038.75;4918767;28;97710;-70
2021/05/29 07:57:24;;;;;;;10.82;7.13;;;;;;;13.87;33.70;102045.88;4917149;28;99451;-71
2021/05/29 07:59:52;;;;;;;7.82;6.60;;;;;;;13.83;33.66;102043.97;4908592;28;97202;-72
2021/05/29 08:02:19;;;;;;;15.70;10.65;;;;;;;13.87;33.76;102039.63;4918514;28;97184;-70
2021/05/29 08:04:46;;;;;;;12.57;10.32;;;;;;;13.91;33.60;102044.19;4906270;28;98939;-71
2021/05/29 08:07:14;;;;;;;9.50;7.10;;;;;;;13.97;33.53;102055.97;4914425;28;99188;-69
2021/05/29 08:09:41;;;;;;;6.82;6.15;;;;;;;13.97;33.53;102058.66;4912107;28;97437;-71
2021/05/29 08:12:10;;;;;;;7.15;5.78;;;;;;;13.98;33.56;102048.84;4915287;28;97844;-69
2021/05/29 08:14:38;;;;;;;5.85;5.25;;;;;;;14.00;33.56;102047.13;4909261;28;98916;-69
2021/05/29 08:17:06;;;;;;;6.57;5.32;;;;;;;14.04;33.46;102049.03;4916121;28;99133;-72
2021/05/29 08:19:33;;;;;;;6.90;5.20;;;;;;;14.03;33.43;102053.47;4916944;28;98605;-70
2021/05/29 08:22:01;;;;;;;6.63;5.93;;;;;;;13.98;33.39;102049.78;4907049;28;97978;-71
2021/05/29 08:24:28;;;;;;;7.55;5.22;;;;;;;13.91;33.56;102057.59;4900361;28;99854;-71
2021/05/29 08:26:55;;;;;;;7.13;5.82;;;;;;;13.89;33.47;102053.94;4907923;28;99506;-70
2021/05/29 08:29:24;;;;;;;7.25;5.47;;;;;;;13.92;33.33;102065.66;4897416;28;97357;-71
2021/05/29 08:31:51;;;;;;;6.53;5.18;;;;;;;13.91;33.45;102062.94;4901128;28;98246;-71
2021/05/29 08:34:19;;;;;;;7.00;5.45;;;;;;;13.88;33.48;102063.75;4904743;28;97601;-73
2021/05/29 08:36:46;;;;;;;8.73;5.32;;;;;;;13.83;33.43;102062.72;4902316;28;99834;-70
2021/05/29 08:39:14;;;;;;;10.02;7.97;;;;;;;13.77;33.46;102061.63;4898812;28;98007;-71
2021/05/29 08:41:41;;;;;;;7.78;6.63;;;;;;;13.77;33.45;102064.28;4904718;28;97452;-70
2021/05/29 08:44:10;;;;;;;7.38;5.95;;;;;;;13.79;33.50;102063.50;4897893;28;101162;-71
2021/05/29 08:46:38;;;;;;;6.20;5.57;;;;;;;13.81;33.14;102060.84;4901312;28;99677;-71
2021/05/29 08:49:06;;;;;;;6.97;5.50;;;;;;;13.86;33.35;102076.16;4903512;28;97471;-71
2021/05/29 08:51:34;;;;;;;6.85;5.47;;;;;;;13.93;33.32;102070.13;4899406;28;97620;-71
2021/05/29 08:54:01;;;;;;;7.22;5.60;;;;;;;13.94;33.20;102069.28;4916520;28;97337;-70
2021/05/29 08:56:29;;;;;;;6.65;5.82;;;;;;;13.84;33.28;102067.19;4901984;28;100060;-71
2021/05/29 08:58:56;;;;;;;7.10;5.40;;;;;;;13.78;33.39;102075.03;4905924;28;97158;-70
2021/05/29 09:01:25;;;;;;;6.60;5.10;;;;;;;13.81;33.41;102072.47;4900633;28;98402;-70
2021/05/29 09:03:55;;;;;;;5.38;4.88;;;;;;;13.83;33.35;102064.47;4897486;28;98066;-70
2021/05/29 09:06:38;;;;;;;6.88;5.10;;;;;;;13.85;33.16;102078.81;4899226;28;99237;-71
2021/05/29 09:09:06;;;;;;;6.88;6.18;;;;;;;13.86;33.18;102070.81;4900960;28;97272;-71
2021/05/29 09:11:44;;;;;;;8.32;5.82;;;;;;;13.83;33.12;102070.75;4908608;28;97435;-71
2021/05/29 09:14:32;;;;;;;9.32;5.93;;;;;;;13.82;33.03;102074.25;4914956;28;98718;-71
2021/05/29 09:17:01;;;;;;;6.30;5.70;;;;;;;13.84;33.18;102077.91;4917281;28;100969;-71
2021/05/29 09:19:29;;;;;;;6.93;5.80;;;;;;;13.81;33.24;102082.25;4903725;28;97630;-70
2021/05/29 09:22:09;;;;;;;7.78;5.93;;;;;;;13.78;33.34;102084.81;4885068;28;97384;-71
2021/05/29 09:24:36;;;;;;;6.38;5.78;;;;;;;13.80;33.47;102081.38;4904749;28;97004;-70
2021/05/29 09:27:09;;;;;;;6.82;5.30;;;;;;;13.83;33.26;102089.47;4901152;28;97760;-70
2021/05/29 09:29:36;;;;;;;11.07;6.15;;;;;;;13.85;33.31;102079.72;4901318;28;98302;-70
2021/05/29 09:32:05;;;;;;;5.90;5.40;;;;;;;13.85;33.32;102092.19;4902613;28;97010;-71
2021/05/29 09:34:40;;;;;;;6.05;5.45;;;;;;;13.85;33.25;102090.44;4901695;28;98033;-71
2021/05/29 09:37:09;;;;;;;5.95;5.38;;;;;;;13.92;33.29;102092.41;4907322;28;99536;-71
2021/05/29 09:39:38;;;;;;;7.43;5.45;;;;;;;13.94;33.18;102092.44;4901988;28;97609;-72
2021/05/29 09:42:08;;;;;;;5.38;4.88;;;;;;;14.02;33.04;102098.94;4902384;28;97210;-69
2021/05/29 09:44:36;;;;;;;6.57;5.80;;;;;;;14.06;32.86;102100.84;4902382;28;97001;-71
2021/05/29 09:47:05;;;;;;;6.78;5.05;;;;;;;14.10;32.79;102090.25;4916221;28;98442;-71
2021/05/29 09:49:44;;;;;;;5.80;5.20;;;;;;;14.19;32.86;102096.72;4903143;28;97406;-71
2021/05/29 09:52:22;;;;;;;5.82;5.28;;;;;;;14.21;32.75;102093.19;4900954;28;97623;-72
2021/05/29 09:54:49;;;;;;;10.13;5.57;;;;;;;14.24;32.98;102095.06;4904497;28;97863;-72
2021/05/29 09:57:17;;;;;;;8.70;5.97;;;;;;;14.26;32.93;102088.91;4899126;28;101863;-70
2021/05/29 09:59:56;;;;;;;14.55;10.70;;;;;;;14.30;32.76;102098.81;4898587;28;97109;-71
2021/05/29 10:02:23;;;;;;;6.60;5.82;;;;;;;14.28;32.80;102096.97;4904206;28;96941;-72
2021/05/29 10:04:54;;;;;;;7.25;5.50;;;;;;;14.28;33.03;102091.63;4900503;28;99450;-72
2021/05/29 10:07:23;;;;;;;6.95;4.97;;;;;;;14.29;32.78;102094.31;4906269;28;99072;-72
2021/05/29 10:09:52;;;;;;;5.68;5.07;;;;;;;14.28;32.83;102096.97;4896365;28;97206;-70
2021/05/29 10:12:19;;;;;;;5.55;4.93;;;;;;;14.27;32.91;102096.06;4901574;28;97586;-72
2021/05/29 10:14:47;;;;;;;5.50;4.93;;;;;;;14.25;33.03;102104.91;4900585;28;100040;-72
2021/05/29 10:17:17;;;;;;;6.25;4.72;;;;;;;14.23;32.96;102103.94;4901054;28;98170;-72
2021/05/29 10:19:45;;;;;;;6.03;5.10;;;;;;;14.23;32.87;102101.28;4900057;28;98089;-71
2021/05/29 10:22:16;;;;;;;6.20;5.60;;;;;;;14.25;32.89;102100.47;4899677;28;97545;-71
2021/05/29 10:24:44;;;;;;;5.45;4.93;;;;;;;14.29;33.06;102101.44;4896466;28;97886;-71
2021/05/29 10:27:13;;;;;;;6.70;6.10;;;;;;;14.15;32.94;102099.28;4898155;28;99167;-71
2021/05/29 10:29:42;;;;;;;7.82;5.55;;;;;;;14.14;33.15;102105.53;4901842;28;97454;-72
2021/05/29 10:32:11;;;;;;;11.48;5.97;;;;;;;14.12;33.23;102101.91;4926133;28;97840;-72
2021/05/29 10:34:53;;;;;;;9.10;5.88;;;;;;;14.15;33.23;102107.34;4908428;28;98199;-71
2021/05/29 10:37:33;;;;;;;5.88;5.30;;;;;;;14.17;33.09;102110.97;4907950;28;99435;-72
2021/05/29 10:40:19;;;;;;;10.63;8.63;;;;;;;14.21;32.96;102109.28;4916143;28;97358;-71
2021/05/29 10:42:49;;;;;;;7.03;6.35;;;;;;;14.23;32.98;102112.91;4913947;28;97041;-72
2021/05/29 10:45:19;;;;;;;6.38;5.57;;;;;;;14.28;32.90;102107.69;4904810;28;98733;-71
2021/05/29 10:48:01;;;;;;;6.53;5.93;;;;;;;14.28;32.81;102110.38;4912310;28;96876;-71
2021/05/29 10:51:00;;;;;;;6.43;5.53;;;;;;;14.28;32.75;102113.03;4907885;28;96987;-71
2021/05/29 10:53:39;;;;;;;7.20;6.22;;;;;;;14.31;32.79;102113.09;4895715;28;97653;-71
2021/05/29 10:56:24;;;;;;;7.47;5.75;;;;;;;14.31;32.90;102113.09;4899932;28;98550;-71
2021/05/29 10:59:07;;;;;;;7.53;6.18;;;;;;;14.34;32.79;102110.50;4900121;28;99636;-71
2021/05/29 11:02:08;;;;;;;7.75;6.38;;;;;;;14.33;32.78;102106.03;4902901;28;96960;-71
2021/05/29 11:04:37;;;;;;;7.47;5.97;;;;;;;14.36;32.69;102107.00;4912343;28;97676;-71
2021/05/29 11:07:23;;;;;;;7.30;6.60;;;;;;;14.46;32.65;102105.50;4902720;28;99730;-71
2021/05/29 11:09:57;;;;;;;7.00;5.85;;;;;;;14.52;32.54;102108.31;4904742;28;100689;-72
2021/05/29 11:12:49;;;;;;;6.80;6.05;;;;;;;14.56;32.51;102108.47;4900677;28;96948;-71
2021/05/29 11:15:16;;;;;;;7.55;6.55;;;;;;;14.60;32.74;102117.50;4899502;28;97180;-72
2021/05/29 11:18:08;;;;;;;7.82;6.50;;;;;;;14.69;32.54;102112.38;4886314;28;98312;-71
2021/05/29 11:21:01;;;;;;;8.20;6.60;;;;;;;14.77;32.34;102109.00;4901121;28;100637;-71
2021/05/29 11:23:28;;;;;;;7.40;6.70;;;;;;;14.79;32.22;102111.75;4894335;28;96931;-71
2021/05/29 11:25:57;;;;;;;10.00;6.38;;;;;;;14.76;32.13;102108.97;4898008;28;96997;-71
2021/05/29 11:28:25;;;;;;;7.28;6.43;;;;;;;14.78;32.24;102102.78;4901424;28;98849;-71
2021/05/29 11:30:57;;;;;;;9.55;7.03;;;;;;;14.76;32.45;102098.25;4894175;28;98901;-71
2021/05/29 11:33:25;;;;;;;8.35;6.50;;;;;;;14.75;32.27;102101.81;4900639;28;96924;-71
2021/05/29 11:35:53;;;;;;;11.27;7.03;;;;;;;14.74;32.46;102099.97;4917301;28;97575;-71
2021/05/29 11:38:27;;;;;;;8.55;6.22;;;;;;;14.80;32.47;102095.69;4917076;28;100131;-71
2021/05/29 11:40:58;;;;;;;8.02;7.20;;;;;;;14.85;32.36;102095.78;4900554;28;97752;-71